Columbine Valley, Colorado
Current Conditions -  °F | °C
As of 7:53 PM on Wednesday 22 Oct 2014 (Local Time) from KAPA Reporting Station
Scattered Clouds Scattered Clouds  
Wind Chill: 53°   Ceiling: Unl
Heat Index: 53°   Visibility: 10mi
Dew Point: 41°   Wind: 7mph
Humidity: 64%   Direction: 150°SSE
Pressure: 30.16"   Gusts: NA
Location:  39.5977°N, 105.071°W
Report Text: KAPA 230153Z 15006KT 10SM FEW090 SCT140 12/05 A3016 RMK AO2 SLP188 T01170050
Loading
Personal Weather Stations






























Interactive Weather Map
Tropical Storm Tracking
New forecast layout! Learn more

10-Day Weather Forecast

Advertisements
Track Severe Weather on mobile